Time;durP1;ratioP1;P1;durP2;ratioP2;P2;SDS_P1;SDS_P2;PMS_P1;PMS_P2;Temp;Humidity;BMP_temperature;BMP_pressure;BME280_temperature;BME280_humidity;BME280_pressure;Samples;Min_cycle;Max_cycle;Signal;HPM_P1;HPM_P2
2021/12/28 00:01:04;;;;;;;26.85;17.52;;;4.20;99.90;;;;;;5103322;28;20040;-65
2021/12/28 00:03:29;;;;;;;25.25;17.67;;;4.20;99.90;;;;;;5087176;28;20100;-64
2021/12/28 00:05:55;;;;;;;25.02;17.80;;;4.20;99.90;;;;;;5088895;28;20082;-65
2021/12/28 00:08:22;;;;;;;25.98;17.90;;;4.10;99.90;;;;;;5088426;28;20419;-65
2021/12/28 00:10:48;;;;;;;28.67;18.15;;;4.20;99.90;;;;;;5090833;28;20067;-65
2021/12/28 00:13:16;;;;;;;27.58;17.80;;;4.20;99.90;;;;;;5089619;28;20044;-65
2021/12/28 00:16:01;;;;;;;28.67;19.63;;;4.30;99.90;;;;;;5088302;28;20055;-65
2021/12/28 00:18:26;;;;;;;30.13;19.15;;;4.30;99.90;;;;;;5102983;28;20055;-65
2021/12/28 00:20:56;;;;;;;27.35;19.58;;;4.30;99.90;;;;;;5100065;28;20032;-65
2021/12/28 00:23:25;;;;;;;30.50;19.50;;;4.20;99.90;;;;;;5084970;28;20056;-65
2021/12/28 00:25:53;;;;;;;30.42;18.77;;;4.40;99.90;;;;;;5088139;28;20051;-65
2021/12/28 00:28:20;;;;;;;28.02;18.35;;;4.50;99.90;;;;;;5088477;28;20048;-65
2021/12/28 00:30:47;;;;;;;35.17;19.48;;;4.40;99.90;;;;;;5088217;28;20036;-65
2021/12/28 00:33:14;;;;;;;34.70;20.00;;;4.50;99.90;;;;;;5088487;28;20040;-65
2021/12/28 00:35:40;;;;;;;32.58;19.27;;;4.40;99.90;;;;;;5087990;28;20055;-65
2021/12/28 00:38:08;;;;;;;34.15;20.35;;;4.50;99.90;;;;;;5087981;28;20044;-65
2021/12/28 00:40:35;;;;;;;35.38;21.27;;;4.40;99.90;;;;;;5087927;28;20040;-65
2021/12/28 00:43:01;;;;;;;35.20;19.83;;;4.40;99.90;;;;;;5087893;28;20051;-65
2021/12/28 00:45:27;;;;;;;42.10;22.52;;;4.40;99.90;;;;;;5106002;28;20048;-64
2021/12/28 00:47:54;;;;;;;34.08;20.20;;;4.50;99.90;;;;;;5087128;28;20427;-65
2021/12/28 00:50:20;;;;;;;38.05;21.23;;;4.40;99.90;;;;;;5107110;28;20103;-65
2021/12/28 00:52:47;;;;;;;39.85;21.77;;;4.30;99.90;;;;;;5106006;28;20054;-65
2021/12/28 00:55:15;;;;;;;33.50;21.27;;;4.40;99.90;;;;;;5087530;28;20109;-65
2021/12/28 00:57:42;;;;;;;37.50;21.08;;;4.30;99.90;;;;;;5087612;28;20052;-65
2021/12/28 01:00:15;;;;;;;39.90;21.90;;;4.30;99.90;;;;;;5088173;28;20040;-65
2021/12/28 01:02:40;;;;;;;39.03;21.92;;;4.40;99.90;;;;;;5087566;28;20048;-65
2021/12/28 01:05:07;;;;;;;40.78;21.88;;;4.50;99.90;;;;;;5105829;28;20051;-65
2021/12/28 01:07:33;;;;;;;40.70;21.98;;;4.50;99.90;;;;;;5087765;28;20113;-64
2021/12/28 01:09:59;;;;;;;38.60;22.05;;;4.50;99.90;;;;;;5088155;28;20040;-65
2021/12/28 01:12:25;;;;;;;40.63;23.38;;;4.50;99.90;;;;;;5087138;28;20377;-65
2021/12/28 01:14:51;;;;;;;45.20;23.33;;;4.50;99.90;;;;;;5104774;28;20074;-64
2021/12/28 01:17:17;;;;;;;44.85;23.58;;;4.50;99.90;;;;;;5105824;28;20032;-65
2021/12/28 01:19:43;;;;;;;50.85;25.13;;;4.60;99.90;;;;;;5106566;28;20096;-65
2021/12/28 01:22:09;;;;;;;55.40;25.60;;;4.60;99.90;;;;;;5106680;28;20048;-65
2021/12/28 01:24:35;;;;;;;56.47;26.80;;;4.60;99.90;;;;;;5106119;28;20036;-64
2021/12/28 01:27:01;;;;;;;44.08;24.75;;;4.70;99.90;;;;;;5105814;28;20103;-65
2021/12/28 01:29:27;;;;;;;58.33;27.90;;;4.50;99.90;;;;;;5087022;28;20051;-65
2021/12/28 01:31:53;;;;;;;66.50;31.02;;;4.70;99.90;;;;;;5105209;28;20048;-65
2021/12/28 01:34:19;;;;;;;75.70;32.58;;;4.60;99.90;;;;;;5087071;28;20055;-65
2021/12/28 01:36:45;;;;;;;81.63;32.63;;;4.70;99.90;;;;;;5105230;28;20044;-65
2021/12/28 01:39:11;;;;;;;86.90;33.75;;;4.80;99.90;;;;;;5087880;28;20127;-65
2021/12/28 01:41:37;;;;;;;92.03;35.42;;;4.80;99.90;;;;;;5106164;28;20047;-65
2021/12/28 01:44:06;;;;;;;97.57;34.47;;;4.90;99.90;;;;;;5087349;28;20074;-65
2021/12/28 01:46:36;;;;;;;105.45;38.30;;;4.90;99.90;;;;;;5086627;28;20117;-65
2021/12/28 01:49:04;;;;;;;111.03;38.13;;;5.00;99.90;;;;;;5087175;28;20488;-65
2021/12/28 01:51:32;;;;;;;110.45;37.58;;;5.10;99.90;;;;;;5086984;28;20059;-65
2021/12/28 01:53:59;;;;;;;111.53;38.45;;;5.20;99.90;;;;;;5105117;28;20552;-65
2021/12/28 01:56:28;;;;;;;117.07;37.83;;;5.40;99.90;;;;;;5087006;28;20107;-65
2021/12/28 01:58:55;;;;;;;109.50;37.60;;;5.50;99.90;;;;;;5086580;28;20044;-65
2021/12/28 02:01:22;;;;;;;111.53;37.72;;;5.50;99.90;;;;;;5086382;28;20310;-65
2021/12/28 02:03:47;;;;;;;116.43;39.92;;;5.50;99.90;;;;;;5086647;28;20048;-65
2021/12/28 02:06:13;;;;;;;129.45;40.00;;;5.60;99.90;;;;;;5086442;28;20519;-65
2021/12/28 02:08:40;;;;;;;141.18;41.47;;;5.60;99.90;;;;;;5104535;28;20067;-65
2021/12/28 02:11:08;;;;;;;139.77;41.50;;;5.50;99.90;;;;;;5086952;28;20048;-65
2021/12/28 02:13:33;;;;;;;145.95;41.03;;;5.70;99.90;;;;;;5098768;28;20043;-65
2021/12/28 02:15:59;;;;;;;140.52;40.03;;;5.70;99.90;;;;;;5085939;28;20099;-65
2021/12/28 02:18:27;;;;;;;145.10;41.00;;;5.60;99.90;;;;;;5104115;28;20048;-65
2021/12/28 02:20:55;;;;;;;217.85;43.47;;;5.50;99.90;;;;;;5086084;28;20069;-65
2021/12/28 02:23:21;;;;;;;93.50;35.80;;;5.30;99.90;;;;;;5102809;28;20507;-65
2021/12/28 02:25:47;;;;;;;116.78;37.78;;;5.20;99.90;;;;;;5086141;28;20040;-65
2021/12/28 02:28:14;;;;;;;103.88;35.47;;;5.30;99.90;;;;;;5086780;28;20047;-65
2021/12/28 02:30:42;;;;;;;114.22;36.67;;;5.20;99.90;;;;;;5086074;28;20073;-65
2021/12/28 02:33:08;;;;;;;98.53;35.60;;;5.30;99.90;;;;;;5085653;28;20571;-65
2021/12/28 02:35:35;;;;;;;131.85;37.45;;;5.20;99.90;;;;;;5085530;28;20078;-65
2021/12/28 02:38:01;;;;;;;99.78;35.13;;;5.20;99.90;;;;;;5078891;28;20051;-65
2021/12/28 02:40:30;;;;;;;109.80;35.97;;;5.10;99.90;;;;;;5086048;28;20052;-65
2021/12/28 02:42:58;;;;;;;101.95;37.38;;;5.10;99.90;;;;;;5086328;28;20054;-65
2021/12/28 02:45:29;;;;;;;136.70;38.25;;;5.20;99.90;;;;;;5085523;28;20058;-65
2021/12/28 02:47:55;;;;;;;135.10;38.30;;;5.10;99.90;;;;;;5086444;28;20126;-66
2021/12/28 02:50:31;;;;;;;102.25;35.47;;;5.10;99.90;;;;;;5086577;28;20111;-64
2021/12/28 02:52:58;;;;;;;98.47;37.38;;;5.10;99.90;;;;;;5085745;28;20044;-65
2021/12/28 02:55:27;;;;;;;123.93;38.15;;;5.20;99.90;;;;;;5086510;28;20078;-65
2021/12/28 02:58:03;;;;;;;136.50;37.90;;;5.40;99.90;;;;;;5104795;28;20044;-65
2021/12/28 03:00:35;;;;;;;140.32;41.30;;;5.40;99.90;;;;;;5086415;28;20048;-65
2021/12/28 03:03:07;;;;;;;154.20;43.08;;;5.60;99.90;;;;;;5105022;28;20044;-65
2021/12/28 03:05:36;;;;;;;137.95;40.92;;;5.70;99.90;;;;;;5080589;28;20055;-65
2021/12/28 03:08:02;;;;;;;129.45;40.38;;;5.80;99.90;;;;;;5085703;28;20074;-65
2021/12/28 03:10:28;;;;;;;143.75;42.47;;;6.00;99.90;;;;;;5084745;28;20195;-65
2021/12/28 03:12:54;;;;;;;137.63;41.53;;;6.20;99.90;;;;;;5103356;28;20506;-65
2021/12/28 03:15:21;;;;;;;111.60;35.40;;;6.10;99.90;;;;;;5085450;28;20140;-65
2021/12/28 03:17:47;;;;;;;141.10;41.42;;;6.30;99.90;;;;;;5085026;28;20074;-65
2021/12/28 03:20:14;;;;;;;127.90;40.53;;;6.40;99.90;;;;;;5085231;28;20048;-65
2021/12/28 03:22:39;;;;;;;138.95;40.58;;;6.30;99.90;;;;;;5085192;28;20123;-65
2021/12/28 03:25:06;;;;;;;125.90;39.75;;;6.50;99.90;;;;;;5080880;28;20078;-64
2021/12/28 03:27:32;;;;;;;140.35;41.45;;;6.40;99.90;;;;;;5103410;28;20057;-65
2021/12/28 03:29:58;;;;;;;128.57;40.33;;;6.40;99.90;;;;;;5086317;28;20076;-65
2021/12/28 03:32:23;;;;;;;140.75;42.08;;;6.50;99.90;;;;;;5103783;28;20046;-65
2021/12/28 03:34:49;;;;;;;129.23;40.60;;;6.50;99.90;;;;;;5103634;28;20064;-65
2021/12/28 03:37:15;;;;;;;129.90;39.80;;;6.40;99.90;;;;;;5085679;28;20052;-65
2021/12/28 03:39:41;;;;;;;128.50;40.78;;;6.40;99.90;;;;;;5108272;28;20106;-65
2021/12/28 03:42:08;;;;;;;157.27;44.90;;;6.40;99.90;;;;;;5108452;28;20119;-65
2021/12/28 03:44:34;;;;;;;151.10;41.15;;;6.30;99.90;;;;;;5089231;28;20040;-65
2021/12/28 03:47:00;;;;;;;122.30;41.53;;;6.20;99.90;;;;;;5089188;28;20048;-65
2021/12/28 03:49:27;;;;;;;150.65;40.65;;;6.10;99.90;;;;;;5088761;28;20063;-65
2021/12/28 03:51:52;;;;;;;127.72;37.72;;;6.00;99.90;;;;;;5107125;28;20044;-65
2021/12/28 03:54:18;;;;;;;132.13;37.67;;;5.90;99.90;;;;;;5107134;28;20492;-65
2021/12/28 03:56:44;;;;;;;109.93;35.35;;;5.90;99.90;;;;;;5108021;28;20052;-65
2021/12/28 03:59:10;;;;;;;104.30;33.28;;;5.80;99.90;;;;;;5089521;28;20108;-65
2021/12/28 04:01:36;;;;;;;103.25;33.67;;;5.70;99.90;;;;;;5107085;28;20044;-65
2021/12/28 04:04:02;;;;;;;105.03;33.88;;;5.60;99.90;;;;;;5106996;28;20111;-65
2021/12/28 04:06:30;;;;;;;124.38;35.08;;;5.60;99.90;;;;;;5088729;28;20062;-65
2021/12/28 04:08:58;;;;;;;139.45;35.72;;;5.50;99.90;;;;;;5106435;28;20089;-65
2021/12/28 04:13:51;;;;;;;113.65;35.47;;;5.50;99.90;;;;;;5088626;28;20091;-65
2021/12/28 04:16:18;;;;;;;273.73;40.83;;;5.50;99.90;;;;;;5089229;28;20492;-64
2021/12/28 04:18:44;;;;;;;195.80;38.38;;;5.30;99.90;;;;;;5088872;28;20048;-65
2021/12/28 04:21:10;;;;;;;215.70;39.95;;;5.40;99.90;;;;;;5106521;28;20054;-65
2021/12/28 04:23:37;;;;;;;190.07;37.55;;;5.40;99.90;;;;;;5106644;28;20093;-65
2021/12/28 04:26:04;;;;;;;236.38;38.83;;;5.40;99.90;;;;;;5089703;28;20059;-65
2021/12/28 04:28:30;;;;;;;213.05;39.40;;;5.40;99.90;;;;;;5088152;28;20036;-65
2021/12/28 04:30:56;;;;;;;197.43;38.22;;;5.30;99.90;;;;;;5088033;28;20101;-65
2021/12/28 04:33:21;;;;;;;203.95;36.78;;;5.40;99.90;;;;;;5088116;28;20047;-65
2021/12/28 04:35:48;;;;;;;215.60;38.72;;;5.40;99.90;;;;;;5106195;28;20044;-65
2021/12/28 04:38:14;;;;;;;210.25;37.38;;;5.40;99.90;;;;;;5106557;28;20054;-65
2021/12/28 04:40:40;;;;;;;216.95;37.20;;;5.50;99.90;;;;;;5087290;28;20085;-65
2021/12/28 04:43:07;;;;;;;159.93;34.30;;;5.60;99.90;;;;;;5106327;28;20044;-65
2021/12/28 04:45:36;;;;;;;180.60;35.47;;;5.60;99.90;;;;;;5106387;28;20068;-65
2021/12/28 04:48:02;;;;;;;145.20;33.63;;;5.60;99.90;;;;;;5088338;28;20073;-65
2021/12/28 04:50:28;;;;;;;208.00;35.33;;;5.60;99.90;;;;;;5104557;28;20079;-65
2021/12/28 04:52:57;;;;;;;209.15;35.95;;;5.60;99.90;;;;;;5087832;28;20044;-65
2021/12/28 04:55:23;;;;;;;129.95;31.40;;;5.50;99.90;;;;;;5106336;28;20040;-64
2021/12/28 04:57:49;;;;;;;122.05;31.85;;;5.50;99.90;;;;;;5107174;28;20127;-65
2021/12/28 05:00:18;;;;;;;124.22;31.33;;;5.50;99.90;;;;;;5106731;28;20044;-65
2021/12/28 05:02:44;;;;;;;135.45;32.20;;;5.40;99.90;;;;;;5107238;28;20557;-65
2021/12/28 05:05:11;;;;;;;164.68;33.80;;;5.40;99.90;;;;;;5107046;28;20072;-65
2021/12/28 05:07:37;;;;;;;134.50;31.40;;;5.30;99.90;;;;;;5087710;28;20087;-65
2021/12/28 05:10:04;;;;;;;143.30;30.67;;;5.30;99.90;;;;;;5105060;28;20048;-65
2021/12/28 05:12:29;;;;;;;180.43;33.00;;;5.30;99.90;;;;;;5105423;28;20508;-64
2021/12/28 05:14:58;;;;;;;149.90;33.03;;;5.30;99.90;;;;;;5105592;28;20101;-65
2021/12/28 05:17:25;;;;;;;107.75;31.73;;;5.20;99.90;;;;;;5106433;28;20051;-65
2021/12/28 05:19:50;;;;;;;154.02;34.47;;;5.20;99.90;;;;;;5088395;28;20062;-65
2021/12/28 05:22:16;;;;;;;130.05;31.60;;;5.30;99.90;;;;;;5105998;28;20488;-65
2021/12/28 05:24:42;;;;;;;124.35;31.25;;;5.40;99.90;;;;;;5087009;28;20047;-65
2021/12/28 05:27:07;;;;;;;118.28;30.05;;;5.40;99.90;;;;;;5102156;28;20090;-64
2021/12/28 05:29:33;;;;;;;89.07;28.00;;;5.40;99.90;;;;;;5087212;28;20048;-65
2021/12/28 05:31:59;;;;;;;141.25;31.75;;;5.40;99.90;;;;;;5086923;28;20048;-65
2021/12/28 05:34:25;;;;;;;147.25;31.77;;;5.50;99.90;;;;;;5105690;28;20047;-65
2021/12/28 05:36:51;;;;;;;155.05;32.83;;;5.40;99.90;;;;;;5087658;28;20098;-64
2021/12/28 05:39:17;;;;;;;116.93;29.98;;;5.60;99.90;;;;;;5106540;28;20050;-64
2021/12/28 05:41:42;;;;;;;98.45;29.25;;;5.40;99.90;;;;;;5104611;28;20103;-65
2021/12/28 05:44:08;;;;;;;109.38;28.98;;;5.50;99.90;;;;;;5070210;28;20048;-64
2021/12/28 05:46:34;;;;;;;101.78;27.48;;;5.40;99.90;;;;;;5105216;28;20130;-64
2021/12/28 05:49:00;;;;;;;104.82;28.23;;;5.50;99.90;;;;;;5086673;28;20054;-64
2021/12/28 05:51:25;;;;;;;98.88;28.52;;;5.60;99.90;;;;;;5104590;28;20527;-65
2021/12/28 05:53:51;;;;;;;112.38;29.75;;;5.70;99.90;;;;;;5104849;28;20060;-65
2021/12/28 05:56:17;;;;;;;103.72;29.40;;;5.50;99.90;;;;;;5104558;28;20066;-64
2021/12/28 05:58:43;;;;;;;90.13;28.63;;;5.40;99.90;;;;;;5086237;28;20040;-65
2021/12/28 06:01:08;;;;;;;122.55;29.23;;;5.40;99.90;;;;;;5104723;28;20044;-65
2021/12/28 06:03:34;;;;;;;108.68;30.17;;;5.40;99.90;;;;;;5105177;28;20399;-65
2021/12/28 06:06:00;;;;;;;113.68;30.63;;;5.50;99.90;;;;;;5104565;28;20036;-64
2021/12/28 06:08:26;;;;;;;131.70;31.42;;;5.50;99.90;;;;;;5104647;28;20115;-65
2021/12/28 06:10:52;;;;;;;110.80;30.30;;;5.50;99.90;;;;;;5068757;28;20043;-65
2021/12/28 06:13:18;;;;;;;91.28;29.23;;;5.40;99.90;;;;;;5104423;28;20036;-65
2021/12/28 06:15:43;;;;;;;109.88;30.88;;;5.50;99.90;;;;;;5084140;28;20094;-64
2021/12/28 06:18:09;;;;;;;99.07;30.10;;;5.30;99.90;;;;;;5104339;28;20047;-64
2021/12/28 06:20:35;;;;;;;116.43;28.45;;;5.20;99.90;;;;;;5086194;28;20046;-64
2021/12/28 06:23:01;;;;;;;128.10;30.45;;;5.30;99.90;;;;;;5086735;28;20104;-65
2021/12/28 06:25:26;;;;;;;127.78;31.23;;;5.40;99.90;;;;;;5105600;28;20051;-64
2021/12/28 06:27:52;;;;;;;109.50;30.30;;;5.40;99.90;;;;;;5087181;28;20040;-64
2021/12/28 06:30:18;;;;;;;85.70;30.15;;;5.60;99.90;;;;;;5104042;28;20047;-64
2021/12/28 06:32:44;;;;;;;104.22;29.65;;;5.50;99.90;;;;;;5086499;28;20052;-65
2021/12/28 06:35:11;;;;;;;84.50;28.35;;;5.50;99.90;;;;;;5104376;28;20074;-65
2021/12/28 06:37:37;;;;;;;90.57;29.10;;;5.40;99.90;;;;;;5104150;28;20048;-64
2021/12/28 06:40:05;;;;;;;92.07;27.88;;;5.60;99.90;;;;;;5086202;28;20044;-65
2021/12/28 06:42:31;;;;;;;82.90;28.90;;;5.60;99.90;;;;;;5104188;28;20136;-64
2021/12/28 06:44:56;;;;;;;87.68;28.33;;;5.60;99.90;;;;;;5085684;28;20048;-65
2021/12/28 06:47:22;;;;;;;66.43;25.48;;;5.60;99.90;;;;;;5087101;28;20043;-65
2021/12/28 06:49:48;;;;;;;84.45;27.55;;;5.50;99.90;;;;;;5086892;28;20059;-64
2021/12/28 06:52:14;;;;;;;73.25;27.63;;;5.60;99.90;;;;;;5105089;28;20036;-65
2021/12/28 06:54:40;;;;;;;87.53;30.75;;;5.40;99.90;;;;;;5104817;28;20076;-64
2021/12/28 06:57:08;;;;;;;91.00;33.03;;;5.50;99.90;;;;;;5104223;28;20068;-65
2021/12/28 06:59:37;;;;;;;101.80;34.95;;;5.40;99.90;;;;;;5086218;28;20488;-65
2021/12/28 07:02:05;;;;;;;83.25;29.70;;;5.60;99.90;;;;;;5103971;28;20051;-65
2021/12/28 07:04:33;;;;;;;73.28;26.23;;;5.50;99.90;;;;;;5085408;28;20080;-65
2021/12/28 07:06:58;;;;;;;80.60;26.50;;;5.50;99.90;;;;;;5103970;28;20097;-65
2021/12/28 07:09:24;;;;;;;77.10;26.38;;;5.40;99.90;;;;;;5085094;28;20395;-65
2021/12/28 07:11:50;;;;;;;75.82;26.95;;;5.40;99.90;;;;;;5103419;28;20045;-65
2021/12/28 07:14:16;;;;;;;64.18;23.77;;;5.50;99.90;;;;;;5107351;28;20107;-65
2021/12/28 07:16:41;;;;;;;58.50;22.45;;;5.50;99.90;;;;;;5089952;28;20078;-65
2021/12/28 07:19:10;;;;;;;64.85;24.55;;;5.50;99.90;;;;;;5089905;28;20040;-65
2021/12/28 07:21:39;;;;;;;56.58;23.02;;;5.60;99.90;;;;;;5089675;28;20071;-65
2021/12/28 07:24:07;;;;;;;62.33;22.55;;;5.50;99.90;;;;;;5089189;28;20043;-65
2021/12/28 07:26:34;;;;;;;47.95;21.10;;;5.60;99.90;;;;;;5107627;28;20040;-65
2021/12/28 07:29:00;;;;;;;58.97;22.90;;;5.50;99.90;;;;;;5107568;28;20050;-64
2021/12/28 07:31:26;;;;;;;54.40;21.70;;;5.50;99.90;;;;;;5108128;28;20040;-65
2021/12/28 07:33:51;;;;;;;43.25;19.63;;;5.50;99.90;;;;;;5089557;28;20088;-65
2021/12/28 07:36:18;;;;;;;34.25;15.65;;;5.60;99.90;;;;;;5108287;28;20047;-65
2021/12/28 07:38:44;;;;;;;40.90;17.90;;;5.70;99.90;;;;;;5108064;28;20056;-65
2021/12/28 07:41:10;;;;;;;37.05;19.08;;;5.70;99.90;;;;;;5107392;28;20044;-65
2021/12/28 07:43:35;;;;;;;46.25;19.52;;;5.70;99.90;;;;;;5106934;28;20105;-65
2021/12/28 07:46:01;;;;;;;27.30;16.40;;;5.60;99.90;;;;;;5089230;28;20048;-65
2021/12/28 07:48:27;;;;;;;39.92;18.45;;;5.70;99.90;;;;;;5087682;28;20055;-65
2021/12/28 07:50:53;;;;;;;35.63;16.55;;;5.50;99.90;;;;;;5072767;28;20039;-65
2021/12/28 07:53:18;;;;;;;30.23;14.10;;;5.60;99.90;;;;;;5089102;28;20056;-64
2021/12/28 07:55:44;;;;;;;40.45;17.10;;;5.80;99.90;;;;;;5071487;28;20047;-65
2021/12/28 07:58:10;;;;;;;29.80;15.82;;;5.70;99.90;;;;;;5106846;28;20066;-66
2021/12/28 08:00:36;;;;;;;39.53;16.30;;;5.70;99.90;;;;;;5089055;28;20112;-65
2021/12/28 08:03:04;;;;;;;35.42;16.00;;;5.70;99.90;;;;;;5087724;28;20055;-66
2021/12/28 08:05:31;;;;;;;32.05;16.58;;;5.70;99.90;;;;;;5105832;28;20119;-65
2021/12/28 08:07:57;;;;;;;34.72;15.63;;;5.70;99.90;;;;;;5105471;28;20095;-65
2021/12/28 08:10:23;;;;;;;32.45;15.38;;;5.70;99.90;;;;;;5087624;28;20068;-64
2021/12/28 08:12:52;;;;;;;32.58;13.65;;;5.70;99.90;;;;;;5105698;28;20040;-64
2021/12/28 08:15:18;;;;;;;33.97;15.07;;;5.90;99.90;;;;;;5087954;28;20074;-64
2021/12/28 08:17:44;;;;;;;32.38;13.30;;;5.80;99.90;;;;;;5071485;28;20104;-64
2021/12/28 08:20:12;;;;;;;34.28;14.73;;;6.00;99.90;;;;;;5106319;28;20058;-64
2021/12/28 08:22:39;;;;;;;34.92;14.35;;;6.10;99.90;;;;;;5088950;28;20117;-64
2021/12/28 08:25:06;;;;;;;34.47;14.38;;;6.00;99.90;;;;;;5088012;28;20251;-65
2021/12/28 08:27:32;;;;;;;35.08;13.82;;;5.90;99.90;;;;;;5087521;28;20104;-64
2021/12/28 08:29:57;;;;;;;29.27;13.10;;;6.00;99.90;;;;;;5087048;28;20071;-65
2021/12/28 08:32:23;;;;;;;35.72;14.95;;;5.90;99.90;;;;;;5105601;28;20103;-64
2021/12/28 08:34:50;;;;;;;26.38;13.63;;;6.00;99.90;;;;;;5106253;28;20065;-65
2021/12/28 08:37:15;;;;;;;34.97;13.45;;;5.90;99.90;;;;;;5088850;28;20097;-65
2021/12/28 08:39:41;;;;;;;36.85;13.60;;;5.90;99.90;;;;;;5087077;28;20126;-62
2021/12/28 08:42:07;;;;;;;37.72;13.57;;;5.90;99.90;;;;;;5087951;28;20087;-61
2021/12/28 08:44:33;;;;;;;29.80;13.50;;;5.80;99.90;;;;;;5087675;28;20097;-62
2021/12/28 08:46:59;;;;;;;28.15;13.10;;;5.90;99.90;;;;;;5106359;28;20056;-63
2021/12/28 08:49:26;;;;;;;29.92;13.23;;;6.00;99.90;;;;;;5105891;28;20270;-63
2021/12/28 08:51:52;;;;;;;27.42;11.35;;;6.00;99.90;;;;;;5088234;28;20055;-63
2021/12/28 08:54:18;;;;;;;28.45;12.00;;;6.00;99.90;;;;;;5106450;28;20224;-63
2021/12/28 08:56:45;;;;;;;27.60;11.27;;;6.00;99.90;;;;;;5087506;28;20047;-63
2021/12/28 08:59:11;;;;;;;26.08;10.95;;;6.00;99.90;;;;;;5088484;28;20127;-63
2021/12/28 09:01:37;;;;;;;31.38;12.23;;;6.00;99.90;;;;;;5088058;28;20075;-63
2021/12/28 09:04:03;;;;;;;30.45;11.85;;;6.00;99.90;;;;;;5087168;28;20066;-63
2021/12/28 09:06:29;;;;;;;24.38;9.80;;;6.10;99.90;;;;;;5106414;28;20059;-64
2021/12/28 09:08:54;;;;;;;31.45;11.02;;;6.20;99.90;;;;;;5105365;28;20040;-63
2021/12/28 09:11:21;;;;;;;31.15;10.45;;;6.20;99.90;;;;;;5092643;28;20063;-63
2021/12/28 09:13:46;;;;;;;26.70;10.85;;;6.10;99.90;;;;;;5105211;28;20044;-64
2021/12/28 09:16:12;;;;;;;35.67;11.45;;;6.30;99.90;;;;;;5106702;28;20530;-63
2021/12/28 09:18:38;;;;;;;26.45;10.35;;;6.20;99.90;;;;;;5087439;28;20052;-62
2021/12/28 09:21:04;;;;;;;26.83;9.35;;;6.40;99.90;;;;;;5028091;28;20049;-61
2021/12/28 09:23:30;;;;;;;30.88;10.48;;;6.30;99.90;;;;;;5093436;28;20572;-61
2021/12/28 09:25:56;;;;;;;24.33;9.63;;;6.40;99.90;;;;;;5100384;28;20131;-63
2021/12/28 09:28:23;;;;;;;26.42;10.15;;;6.40;99.90;;;;;;5084507;28;20083;-62
2021/12/28 09:30:49;;;;;;;29.08;10.70;;;6.40;99.90;;;;;;5091822;28;20099;-63
2021/12/28 09:33:15;;;;;;;28.38;10.15;;;6.40;99.90;;;;;;5098536;28;20040;-63
2021/12/28 09:35:42;;;;;;;30.38;9.98;;;6.50;99.90;;;;;;5087251;28;20058;-63
2021/12/28 09:38:08;;;;;;;28.27;11.48;;;6.60;99.90;;;;;;5104876;28;20626;-63
2021/12/28 09:40:34;;;;;;;28.98;10.15;;;6.60;99.90;;;;;;5092191;28;20043;-70
2021/12/28 09:43:03;;;;;;;30.40;10.90;;;6.80;99.90;;;;;;5081841;28;20048;-65
2021/12/28 09:45:28;;;;;;;25.50;10.73;;;6.60;99.90;;;;;;5096422;28;20059;-65
2021/12/28 09:47:54;;;;;;;34.25;12.23;;;6.50;99.90;;;;;;5090180;28;20043;-65
2021/12/28 09:50:22;;;;;;;33.65;11.30;;;6.60;99.90;;;;;;5100594;28;20059;-65
2021/12/28 09:52:50;;;;;;;30.45;13.38;;;6.70;99.90;;;;;;5079584;28;20051;-65
2021/12/28 09:55:19;;;;;;;30.52;11.63;;;6.70;99.90;;;;;;5080055;28;20078;-65
2021/12/28 09:57:45;;;;;;;26.35;9.68;;;6.60;99.90;;;;;;5041317;28;20053;-65
2021/12/28 10:00:12;;;;;;;24.00;9.98;;;6.50;99.90;;;;;;5082709;28;20044;-65
2021/12/28 10:02:38;;;;;;;26.95;9.52;;;6.60;99.90;;;;;;5089512;28;20048;-65
2021/12/28 10:05:11;;;;;;;27.90;12.07;;;6.50;99.90;;;;;;5099114;28;20135;-65
2021/12/28 10:07:42;;;;;;;30.73;12.52;;;6.60;99.90;;;;;;5079275;28;20044;-65
2021/12/28 10:10:09;;;;;;;23.25;9.63;;;6.50;99.90;;;;;;5092429;28;20071;-63
2021/12/28 10:12:41;;;;;;;22.10;8.77;;;6.70;99.90;;;;;;5085831;28;20048;-64
2021/12/28 10:15:12;;;;;;;24.63;8.43;;;6.80;99.90;;;;;;5110190;28;20547;-64
2021/12/28 10:17:40;;;;;;;22.02;8.40;;;6.90;99.90;;;;;;5082782;28;20043;-64
2021/12/28 10:20:11;;;;;;;22.52;9.38;;;6.90;99.90;;;;;;5083130;28;20063;-63
2021/12/28 10:22:42;;;;;;;27.02;8.90;;;6.90;99.90;;;;;;5080850;28;20040;-63
2021/12/28 10:25:11;;;;;;;20.38;8.77;;;6.90;99.90;;;;;;5089406;28;20044;-63
2021/12/28 10:27:40;;;;;;;30.02;8.88;;;6.90;99.90;;;;;;5090774;28;20075;-63
2021/12/28 10:30:08;;;;;;;23.35;8.45;;;7.00;99.90;;;;;;5082806;28;20106;-63
2021/12/28 10:32:35;;;;;;;21.92;8.68;;;7.00;99.90;;;;;;5069656;28;20044;-62
2021/12/28 10:35:09;;;;;;;21.65;8.23;;;7.00;99.90;;;;;;5105355;28;20519;-63
2021/12/28 10:37:40;;;;;;;26.58;8.02;;;7.10;99.90;;;;;;5092063;28;20051;-62
2021/12/28 10:40:11;;;;;;;25.52;8.30;;;7.10;99.90;;;;;;5092153;28;20129;-63
2021/12/28 10:42:43;;;;;;;23.80;9.60;;;7.10;99.90;;;;;;5095871;28;20055;-62
2021/12/28 10:45:13;;;;;;;25.42;8.77;;;7.20;99.90;;;;;;5083863;28;20044;-63
2021/12/28 10:47:39;;;;;;;23.98;8.27;;;7.10;99.90;;;;;;5069015;28;20570;-62
2021/12/28 10:50:27;;;;;;;20.95;8.15;;;7.40;99.90;;;;;;5078841;28;20047;-62
2021/12/28 10:53:14;;;;;;;24.50;8.10;;;7.30;99.90;;;;;;5067729;28;20048;-62
2021/12/28 10:55:42;;;;;;;27.73;9.55;;;7.30;99.90;;;;;;5107428;28;20066;-62
2021/12/28 10:58:11;;;;;;;22.80;9.57;;;7.30;99.90;;;;;;5074320;28;20063;-62
2021/12/28 11:00:41;;;;;;;26.15;9.43;;;7.30;99.90;;;;;;5082679;28;20044;-62
2021/12/28 11:03:31;;;;;;;23.27;9.20;;;7.30;99.90;;;;;;5074587;28;20078;-62
2021/12/28 11:05:59;;;;;;;27.38;9.30;;;7.40;99.90;;;;;;5062708;28;20139;-64
2021/12/28 11:08:28;;;;;;;27.63;9.85;;;7.40;99.90;;;;;;5094336;28;20032;-63
2021/12/28 11:11:01;;;;;;;22.67;8.95;;;7.40;99.90;;;;;;5076988;28;20044;-63
2021/12/28 11:13:29;;;;;;;31.17;10.50;;;7.40;99.90;;;;;;5067368;28;20554;-63
2021/12/28 11:15:57;;;;;;;25.15;8.65;;;7.30;99.90;;;;;;5074117;28;20080;-64
2021/12/28 11:18:35;;;;;;;24.92;8.82;;;7.50;99.90;;;;;;5103064;28;20102;-63
2021/12/28 11:21:15;;;;;;;29.65;10.05;;;7.50;99.90;;;;;;5064553;28;20043;-63
2021/12/28 11:23:41;;;;;;;21.20;8.93;;;7.60;99.90;;;;;;5100965;28;20035;-63
2021/12/28 11:26:12;;;;;;;22.05;8.52;;;7.50;99.90;;;;;;5099441;28;20119;-63
2021/12/28 11:28:40;;;;;;;23.42;7.78;;;7.50;99.90;;;;;;5097772;28;20047;-63
2021/12/28 11:31:13;;;;;;;20.67;9.48;;;7.70;99.90;;;;;;5068846;28;20121;-63
2021/12/28 11:33:53;;;;;;;23.00;8.50;;;7.70;99.90;;;;;;5083322;28;20079;-63
2021/12/28 11:36:22;;;;;;;24.98;8.13;;;7.60;99.90;;;;;;5087948;28;20588;-63
2021/12/28 11:38:48;;;;;;;24.58;8.48;;;7.70;99.90;;;;;;5110880;28;20048;-63
2021/12/28 11:41:14;;;;;;;18.73;8.50;;;7.60;99.90;;;;;;5088930;28;20047;-63
2021/12/28 11:43:42;;;;;;;21.77;8.82;;;7.70;99.90;;;;;;5078787;28;20052;-62
2021/12/28 11:46:09;;;;;;;18.40;8.93;;;7.60;99.90;;;;;;5084657;28;20044;-63
2021/12/28 11:48:35;;;;;;;22.50;8.85;;;7.50;99.90;;;;;;5096475;28;20130;-63
2021/12/28 11:51:02;;;;;;;22.40;9.32;;;7.60;99.90;;;;;;5098126;28;20180;-63
2021/12/28 11:53:28;;;;;;;18.45;8.65;;;7.60;99.90;;;;;;5087454;28;20113;-63
2021/12/28 11:55:58;;;;;;;23.95;8.73;;;7.60;99.90;;;;;;5098169;28;20040;-63
2021/12/28 11:58:52;;;;;;;22.33;9.05;;;7.70;99.90;;;;;;5076473;27;20043;-63
2021/12/28 12:01:41;;;;;;;20.75;8.05;;;7.70;99.90;;;;;;5117377;27;20404;-63
2021/12/28 12:04:29;;;;;;;18.83;8.98;;;7.70;99.90;;;;;;5125561;27;20538;-63
2021/12/28 12:07:14;;;;;;;27.38;9.77;;;7.70;99.90;;;;;;5115084;27;20146;-63
2021/12/28 12:09:49;;;;;;;24.92;10.35;;;7.70;99.90;;;;;;5125418;27;20039;-62
2021/12/28 12:12:17;;;;;;;20.10;11.07;;;7.90;99.90;;;;;;5108285;27;20040;-62
2021/12/28 12:14:58;;;;;;;24.88;12.13;;;7.90;99.90;;;;;;5091383;28;20059;-63
2021/12/28 12:17:37;;;;;;;29.13;10.82;;;7.80;99.90;;;;;;5093301;28;20069;-64
2021/12/28 12:20:25;;;;;;;22.33;12.98;;;7.90;99.90;;;;;;5091808;28;20147;-64
2021/12/28 12:23:12;;;;;;;25.23;12.90;;;8.00;99.90;;;;;;5097882;28;20047;-64
2021/12/28 12:26:03;;;;;;;20.77;11.70;;;7.80;99.90;;;;;;5086454;28;20071;-63
2021/12/28 12:28:50;;;;;;;28.02;14.55;;;7.80;99.90;;;;;;5069668;28;20048;-63
2021/12/28 12:31:32;;;;;;;22.48;11.55;;;7.90;99.90;;;;;;5069973;28;20055;-63
2021/12/28 12:33:59;;;;;;;26.30;12.07;;;7.90;99.90;;;;;;5086585;28;20337;-63
2021/12/28 12:36:38;;;;;;;25.90;12.95;;;8.00;99.90;;;;;;5098895;28;20088;-64
2021/12/28 12:39:06;;;;;;;26.47;12.63;;;7.90;99.90;;;;;;5082703;28;20044;-64
2021/12/28 12:41:50;;;;;;;22.50;11.50;;;8.00;99.90;;;;;;5087174;28;20066;-64